Time,TemperatureF,DewpointF,PressureIn,WindDirection,WindDirectionDegrees,WindSpeedMPH,WindSpeedGustMPH,Humidity,HourlyPrecipIn,Conditions,Clouds,dailyrainin,SoftwareType,DateUTC
2013-10-03 15:49:00,54.5,49.4,29.43,SSW,202,2.0,2.0,83,0.00,RA,SKC,0.00,WeatherDisplay:10.37,2013-10-03 19:49:00,
2013-10-03 15:50:00,54.5,49.4,29.43,SSW,202,2.0,2.0,83,0.00,RA,SKC,0.00,WeatherDisplay:10.37,2013-10-03 19:50:00,
2013-10-03 15:55:00,73.0,47.9,29.52,SSW,202,1.2,1.2,41,0.00,RA,SKC,0.00,WeatherDisplay:10.37,2013-10-03 19:55:00,
2013-10-03 16:00:00,73.0,48.6,29.52,WNW,292,3.8,3.8,42,0.00,RA,SKC,0.00,WeatherDisplay:10.37,2013-10-03 20:00:00,
2013-10-03 16:05:00,73.0,49.8,29.52,NNW,338,0.2,0.2,44,0.00,RA,SKC,0.00,WeatherDisplay:10.37,2013-10-03 20:05:00,
2013-10-03 16:10:00,72.7,49.5,29.52,North,0,3.3,3.3,44,0.00,RA,SKC,0.00,WeatherDisplay:10.37,2013-10-03 20:10:00,
2013-10-03 16:15:00,72.5,48.7,29.52,NNE,22,1.6,1.6,43,0.00,RA,SKC,0.00,WeatherDisplay:10.37,2013-10-03 20:15:00,
2013-10-03 16:21:00,72.3,49.2,29.52,North,0,0.5,0.5,44,0.00,RA,SKC,0.00,WeatherDisplay:10.37,2013-10-03 20:21:00,
2013-10-03 16:26:00,72.3,49.2,29.52,SSW,202,0.9,0.9,44,0.00,RA,SKC,0.00,WeatherDisplay:10.37,2013-10-03 20:26:00,
2013-10-03 16:31:00,72.1,49.6,29.52,North,0,0.2,0.2,45,0.00,RA,SKC,0.00,WeatherDisplay:10.37,2013-10-03 20:31:00,
2013-10-03 16:36:00,72.0,50.0,29.52,North,0,0.5,0.5,46,0.00,RA,SKC,0.00,WeatherDisplay:10.37,2013-10-03 20:36:00,
2013-10-03 16:41:00,71.8,49.9,29.52,North,0,0.5,0.5,46,0.00,RA,SKC,0.00,WeatherDisplay:10.37,2013-10-03 20:41:00,
2013-10-03 16:46:00,71.2,50.5,29.53,NNE,22,0.9,0.9,48,0.00,RA,SKC,0.00,WeatherDisplay:10.37,2013-10-03 20:46:00,
2013-10-03 16:51:00,70.9,50.2,29.53,NNE,22,2.4,2.4,48,0.00,RA,SKC,0.00,WeatherDisplay:10.37,2013-10-03 20:51:00,
2013-10-03 16:56:00,70.7,50.0,29.53,WNW,292,0.0,0.0,48,0.00,RA,SKC,0.00,WeatherDisplay:10.37,2013-10-03 20:56:00,
2013-10-03 17:01:00,70.3,50.3,29.52,North,0,0.0,0.5,49,0.00,RA,SKC,0.00,WeatherDisplay:10.37,2013-10-03 21:01:00,
2013-10-03 17:06:00,70.2,49.5,29.52,NNE,22,1.8,1.8,48,0.00,RA,SKC,0.00,WeatherDisplay:10.37,2013-10-03 21:06:00,
2013-10-03 17:11:00,69.8,49.2,29.52,WSW,248,0.0,0.0,48,0.00,RA,SKC,0.00,WeatherDisplay:10.37,2013-10-03 21:11:00,
2013-10-03 17:16:00,69.8,49.2,29.52,NNW,338,0.0,0.0,48,0.00,RA,SKC,0.00,WeatherDisplay:10.37,2013-10-03 21:16:00,
2013-10-03 17:21:00,69.6,49.6,29.53,NNE,22,0.5,0.5,49,0.00,RA,SKC,0.00,WeatherDisplay:10.37,2013-10-03 21:21:00,
2013-10-03 17:26:00,69.4,48.9,29.53,WSW,248,0.0,0.2,48,0.00,RA,SKC,0.00,WeatherDisplay:10.37,2013-10-03 21:26:00,
2013-10-03 17:31:00,69.3,49.3,29.53,SSW,202,0.0,0.0,49,0.00,RA,SKC,0.00,WeatherDisplay:10.37,2013-10-03 21:31:00,
2013-10-03 17:36:00,68.7,50.4,29.53,SSW,202,0.0,0.0,52,0.00,RA,SKC,0.00,WeatherDisplay:10.37,2013-10-03 21:36:00,
2013-10-03 17:41:00,68.2,50.4,29.53,SSW,202,0.0,0.0,53,0.00,RA,SKC,0.00,WeatherDisplay:10.37,2013-10-03 21:41:00,
2013-10-03 17:46:00,67.8,50.1,29.53,SSW,202,0.0,0.0,53,0.00,RA,SKC,0.00,WeatherDisplay:10.37,2013-10-03 21:46:00,
2013-10-03 17:51:00,67.3,50.6,29.53,SSW,202,0.0,0.0,55,0.00,RA,SKC,0.00,WeatherDisplay:10.37,2013-10-03 21:51:00,
2013-10-03 17:56:00,66.6,50.4,29.53,SSW,202,0.0,0.0,56,0.00,RA,SKC,0.00,WeatherDisplay:10.37,2013-10-03 21:56:00,
2013-10-03 18:01:00,66.2,50.0,29.53,SSW,202,0.0,0.0,56,0.00,RA,SKC,0.00,WeatherDisplay:10.37,2013-10-03 22:01:00,
2013-10-03 18:06:00,65.7,49.5,29.52,SSW,202,0.0,0.0,56,0.00,RA,SKC,0.00,WeatherDisplay:10.37,2013-10-03 22:06:00,
2013-10-03 18:11:00,65.5,49.4,29.53,SSW,202,0.0,0.0,56,0.00,RA,SKC,0.00,WeatherDisplay:10.37,2013-10-03 22:11:00,
2013-10-03 18:16:00,64.9,49.3,29.53,SW,225,0.0,0.0,57,0.00,RA,SKC,0.00,WeatherDisplay:10.37,2013-10-03 22:16:00,
2013-10-03 18:21:00,64.8,49.2,29.53,SW,225,0.0,0.9,57,0.00,RA,SKC,0.00,WeatherDisplay:10.37,2013-10-03 22:21:00,
2013-10-03 18:26:00,64.6,49.5,29.53,SW,225,0.0,0.0,58,0.00,RA,SKC,0.00,WeatherDisplay:10.37,2013-10-03 22:26:00,
2013-10-03 18:31:00,64.2,49.1,29.53,West,270,0.5,0.5,58,0.00,RA,SKC,0.00,WeatherDisplay:10.37,2013-10-03 22:31:00,
2013-10-03 18:36:00,63.9,50.1,29.53,West,270,0.0,0.0,61,0.00,RA,SKC,0.00,WeatherDisplay:10.37,2013-10-03 22:36:00,
2013-10-03 18:41:00,63.3,49.6,29.53,SSW,202,0.5,0.5,61,0.00,RA,SKC,0.00,WeatherDisplay:10.37,2013-10-03 22:41:00,
2013-10-03 18:46:00,63.1,50.3,29.53,SSW,202,0.2,0.2,63,0.00,RA,SKC,0.00,WeatherDisplay:10.37,2013-10-03 22:46:00,
2013-10-03 18:51:00,62.8,51.2,29.54,SSW,202,0.0,0.7,66,0.00,RA,SKC,0.00,WeatherDisplay:10.37,2013-10-03 22:51:00,
2013-10-03 18:56:00,62.4,50.1,29.54,WSW,248,0.9,0.9,64,0.00,RA,SKC,0.00,WeatherDisplay:10.37,2013-10-03 22:56:00,
2013-10-03 19:01:00,62.2,50.7,29.54,WSW,248,0.0,0.0,66,0.00,RA,SKC,0.00,WeatherDisplay:10.37,2013-10-03 23:01:00,
2013-10-03 19:06:00,62.1,50.6,29.54,WSW,248,0.5,0.5,66,0.00,RA,SKC,0.00,WeatherDisplay:10.37,2013-10-03 23:06:00,
2013-10-03 19:11:00,61.9,51.6,29.55,WSW,248,0.0,0.0,69,0.00,RA,SKC,0.00,WeatherDisplay:10.37,2013-10-03 23:11:00,
2013-10-03 19:16:00,61.5,50.5,29.55,WSW,248,0.0,0.0,67,0.00,RA,SKC,0.00,WeatherDisplay:10.37,2013-10-03 23:16:00,
2013-10-03 19:21:00,61.3,50.7,29.55,SSW,202,0.0,0.5,68,0.00,RA,SKC,0.00,WeatherDisplay:10.37,2013-10-03 23:21:00,
2013-10-03 19:26:00,61.0,50.3,29.55,SSW,202,0.0,0.0,68,0.00,RA,SKC,0.00,WeatherDisplay:10.37,2013-10-03 23:26:00,
2013-10-03 19:31:00,60.8,50.2,29.55,SSW,202,0.0,0.0,68,0.00,RA,SKC,0.00,WeatherDisplay:10.37,2013-10-03 23:31:00,
2013-10-03 19:36:00,60.3,50.0,29.55,SSW,202,0.0,0.0,69,0.00,RA,SKC,0.00,WeatherDisplay:10.37,2013-10-03 23:36:00,
2013-10-03 19:41:00,60.1,49.9,29.55,SSW,202,0.0,0.0,69,0.00,RA,SKC,0.00,WeatherDisplay:10.37,2013-10-03 23:41:00,
2013-10-03 19:46:00,60.1,49.9,29.56,SSW,202,0.0,0.0,69,0.00,RA,SKC,0.00,WeatherDisplay:10.37,2013-10-03 23:46:00,
2013-10-03 19:51:00,59.5,49.7,29.56,SSW,202,0.0,0.0,70,0.00,RA,SKC,0.00,WeatherDisplay:10.37,2013-10-03 23:51:00,
2013-10-03 19:56:00,59.4,50.0,29.56,SSW,202,0.0,0.0,71,0.00,RA,SKC,0.00,WeatherDisplay:10.37,2013-10-03 23:56:00,
2013-10-03 20:01:00,59.0,49.6,29.56,SSW,202,0.0,0.0,71,0.00,RA,SKC,0.00,WeatherDisplay:10.37,2013-10-04 00:01:00,
2013-10-03 20:06:00,58.6,49.3,29.56,SSW,202,0.0,0.0,71,0.00,RA,SKC,0.00,WeatherDisplay:10.37,2013-10-04 00:06:00,
2013-10-03 20:11:00,58.1,49.5,29.56,SSW,202,0.0,0.0,73,0.00,RA,SKC,0.00,WeatherDisplay:10.37,2013-10-04 00:11:00,
2013-10-03 20:16:00,57.9,49.3,29.56,SW,225,0.0,0.0,73,0.00,RA,SKC,0.00,WeatherDisplay:10.37,2013-10-04 00:16:00,
2013-10-03 20:21:00,57.9,49.3,29.56,SW,225,0.0,0.0,73,0.00,RA,SKC,0.00,WeatherDisplay:10.37,2013-10-04 00:21:00,
2013-10-03 20:26:00,57.9,49.3,29.57,SW,225,0.5,0.5,73,0.00,RA,SKC,0.00,WeatherDisplay:10.37,2013-10-04 00:26:00,
2013-10-03 20:31:00,57.7,49.1,29.56,SW,225,0.0,0.0,73,0.00,RA,SKC,0.00,WeatherDisplay:10.37,2013-10-04 00:31:00,
2013-10-03 20:36:00,57.2,48.6,29.57,SW,225,0.0,0.0,73,0.00,RA,SKC,0.00,WeatherDisplay:10.37,2013-10-04 00:36:00,
2013-10-03 20:41:00,57.0,48.8,29.57,SW,225,0.0,0.0,74,0.00,RA,SKC,0.00,WeatherDisplay:10.37,2013-10-04 00:41:00,
2013-10-03 20:46:00,56.8,48.6,29.57,SW,225,0.0,0.0,74,0.00,RA,SKC,0.00,WeatherDisplay:10.37,2013-10-04 00:46:00,
2013-10-03 20:51:00,56.5,48.6,29.57,SW,225,0.0,0.0,75,0.00,RA,SKC,0.00,WeatherDisplay:10.37,2013-10-04 00:51:00,
2013-10-03 20:56:00,56.3,48.5,29.57,SW,225,0.9,0.9,75,0.00,RA,SKC,0.00,WeatherDisplay:10.37,2013-10-04 00:56:00,
2013-10-03 21:02:00,56.1,48.3,29.57,WSW,248,0.0,0.0,75,0.00,RA,SKC,0.00,WeatherDisplay:10.37,2013-10-04 01:02:00,
2013-10-03 21:07:00,55.9,48.5,29.58,WSW,248,0.0,0.0,76,0.00,RA,SKC,0.00,WeatherDisplay:10.37,2013-10-04 01:07:00,
2013-10-03 21:12:00,55.4,49.0,29.58,WSW,248,0.0,0.0,79,0.00,RA,SKC,0.00,WeatherDisplay:10.37,2013-10-04 01:12:00,
2013-10-03 21:17:00,55.2,48.1,29.57,WSW,248,0.0,0.0,77,0.00,RA,SKC,0.00,WeatherDisplay:10.37,2013-10-04 01:17:00,
2013-10-03 21:22:00,55.0,48.0,29.57,WSW,248,0.0,0.0,77,0.00,RA,SKC,0.00,WeatherDisplay:10.37,2013-10-04 01:22:00,
2013-10-03 21:27:00,54.7,48.3,29.58,North,0,0.0,0.0,79,0.00,RA,SKC,0.00,WeatherDisplay:10.37,2013-10-04 01:27:00,
2013-10-03 21:32:00,54.7,48.0,29.58,North,0,0.5,0.5,78,0.00,RA,SKC,0.00,WeatherDisplay:10.37,2013-10-04 01:32:00,
2013-10-03 21:37:00,54.7,48.3,29.58,North,0,0.0,0.0,79,0.00,RA,SKC,0.00,WeatherDisplay:10.37,2013-10-04 01:37:00,
2013-10-03 21:42:00,54.7,48.0,29.58,North,0,0.0,0.0,78,0.00,RA,SKC,0.00,WeatherDisplay:10.37,2013-10-04 01:42:00,
2013-10-03 21:47:00,54.5,47.8,29.58,NE,45,0.2,0.2,78,0.00,RA,SKC,0.00,WeatherDisplay:10.37,2013-10-04 01:47:00,
2013-10-03 21:52:00,54.1,47.1,29.58,NE,45,0.0,0.0,77,0.00,RA,SKC,0.00,WeatherDisplay:10.37,2013-10-04 01:52:00,
2013-10-03 21:57:00,54.0,46.9,29.58,NE,45,0.0,0.0,77,0.00,RA,SKC,0.00,WeatherDisplay:10.37,2013-10-04 01:57:00,
2013-10-03 22:02:00,54.0,46.9,29.59,NE,45,0.0,0.0,77,0.00,RA,SKC,0.00,WeatherDisplay:10.37,2013-10-04 02:02:00,
2013-10-03 22:07:00,53.6,46.6,29.59,NE,45,0.0,0.0,77,0.00,RA,SKC,0.00,WeatherDisplay:10.37,2013-10-04 02:07:00,
2013-10-03 22:12:00,52.9,45.9,29.59,NE,45,0.0,0.0,77,0.00,RA,SKC,0.00,WeatherDisplay:10.37,2013-10-04 02:12:00,
2013-10-03 22:17:00,52.3,45.7,29.59,NE,45,0.0,0.0,78,0.00,RA,SKC,0.00,WeatherDisplay:10.37,2013-10-04 02:17:00,
2013-10-03 22:22:00,52.2,45.5,29.59,NE,45,0.0,0.0,78,0.00,RA,SKC,0.00,WeatherDisplay:10.37,2013-10-04 02:22:00,
2013-10-03 22:27:00,52.2,45.5,29.59,WSW,248,0.0,0.0,78,0.00,RA,SKC,0.00,WeatherDisplay:10.37,2013-10-04 02:27:00,
2013-10-03 22:32:00,52.2,45.5,29.58,WSW,248,0.0,0.0,78,0.00,RA,SKC,0.00,WeatherDisplay:10.37,2013-10-04 02:32:00,
2013-10-03 22:37:00,52.2,45.5,29.59,WSW,248,0.0,0.0,78,0.00,RA,SKC,0.00,WeatherDisplay:10.37,2013-10-04 02:37:00,
2013-10-03 22:42:00,52.0,45.3,29.59,WSW,248,0.0,0.0,78,0.00,RA,SKC,0.00,WeatherDisplay:10.37,2013-10-04 02:42:00,
2013-10-03 22:47:00,51.6,45.0,29.59,WSW,248,0.0,0.0,78,0.00,RA,SKC,0.00,WeatherDisplay:10.37,2013-10-04 02:47:00,
2013-10-03 22:52:00,51.4,45.1,29.59,WSW,248,0.2,0.2,79,0.00,RA,SKC,0.00,WeatherDisplay:10.37,2013-10-04 02:52:00,
2013-10-03 22:57:00,51.1,45.1,29.58,WSW,248,0.0,0.0,80,0.00,RA,SKC,0.00,WeatherDisplay:10.37,2013-10-04 02:57:00,
2013-10-03 23:02:00,50.7,44.4,29.58,SW,225,0.0,0.0,79,0.00,RA,SKC,0.00,WeatherDisplay:10.37,2013-10-04 03:02:00,
2013-10-03 23:07:00,50.5,44.6,29.58,SW,225,0.5,0.5,80,0.00,RA,SKC,0.00,WeatherDisplay:10.37,2013-10-04 03:07:00,
2013-10-03 23:12:00,50.4,44.4,29.58,SSW,202,0.0,0.0,80,0.00,RA,SKC,0.00,WeatherDisplay:10.37,2013-10-04 03:12:00,